Tarim, Yemen
Current Conditions -  °F | °C
As of 6:00 AM on Saturday 20 Dec 2014 (Local Time) from OYRN Reporting Station
Few Clouds Few Clouds  
Wind Chill: 70°   Ceiling: Unl
Heat Index: 70°   Visibility: 5mi
Dew Point: 55°   Wind: 7mph
Humidity: 60%   Direction: 330°NNW
Pressure: 30.06"   Gusts: NA
Location:  16.06°N, 49°E
Report Text: OYRN 200300Z 33006KT 8000 FEW016TCU 21/13 Q1018
Loading
Personal Weather Stations






























Interactive Weather Map New forecast layout! Learn more

10-Day Weather Forecast

Advertisements
Track Severe Weather on mobile